sensor_id;sensor_type;location;lat;lon;timestamp;pressure;altitude;pressure_sealevel;temperature;humidity
71907;BME280;59781;52.090;5.030;2023-09-08T00:01:33;101647.25;;;22.11;100.00
71907;BME280;59781;52.090;5.030;2023-09-08T00:03:58;101645.38;;;21.86;100.00
71907;BME280;59781;52.090;5.030;2023-09-08T00:06:24;101636.03;;;21.69;100.00
71907;BME280;59781;52.090;5.030;2023-09-08T00:08:50;101639.81;;;21.74;100.00
71907;BME280;59781;52.090;5.030;2023-09-08T00:11:17;101644.72;;;21.66;100.00
71907;BME280;59781;52.090;5.030;2023-09-08T00:13:42;101636.91;;;21.44;100.00
71907;BME280;59781;52.090;5.030;2023-09-08T00:16:08;101634.94;;;21.20;100.00
71907;BME280;59781;52.090;5.030;2023-09-08T00:18:35;101635.50;;;21.60;100.00
71907;BME280;59781;52.090;5.030;2023-09-08T00:21:01;101634.53;;;21.91;100.00
71907;BME280;59781;52.090;5.030;2023-09-08T00:23:26;101635.91;;;21.82;100.00
71907;BME280;59781;52.090;5.030;2023-09-08T00:25:53;101647.72;;;22.08;100.00
71907;BME280;59781;52.090;5.030;2023-09-08T00:28:19;101644.31;;;21.62;100.00
71907;BME280;59781;52.090;5.030;2023-09-08T00:30:45;101644.06;;;21.45;100.00
71907;BME280;59781;52.090;5.030;2023-09-08T00:33:10;101641.56;;;21.44;100.00
71907;BME280;59781;52.090;5.030;2023-09-08T00:35:38;101640.69;;;21.68;100.00
71907;BME280;59781;52.090;5.030;2023-09-08T00:38:03;101646.63;;;21.40;100.00
71907;BME280;59781;52.090;5.030;2023-09-08T00:40:29;101642.78;;;21.48;100.00
71907;BME280;59781;52.090;5.030;2023-09-08T00:42:55;101642.44;;;21.38;100.00
71907;BME280;59781;52.090;5.030;2023-09-08T00:45:21;101647.78;;;21.51;100.00
71907;BME280;59781;52.090;5.030;2023-09-08T00:47:48;101649.97;;;21.11;100.00
71907;BME280;59781;52.090;5.030;2023-09-08T00:50:13;101651.78;;;21.24;100.00
71907;BME280;59781;52.090;5.030;2023-09-08T00:52:40;101648.00;;;21.25;100.00
71907;BME280;59781;52.090;5.030;2023-09-08T00:55:06;101649.22;;;21.35;100.00
71907;BME280;59781;52.090;5.030;2023-09-08T00:57:32;101660.09;;;21.10;100.00
71907;BME280;59781;52.090;5.030;2023-09-08T00:59:58;101649.31;;;21.47;100.00
71907;BME280;59781;52.090;5.030;2023-09-08T01:02:24;101641.56;;;21.62;100.00
71907;BME280;59781;52.090;5.030;2023-09-08T01:04:50;101645.63;;;21.60;100.00
71907;BME280;59781;52.090;5.030;2023-09-08T01:07:16;101649.13;;;21.10;100.00
71907;BME280;59781;52.090;5.030;2023-09-08T01:09:47;101650.53;;;20.88;100.00
71907;BME280;59781;52.090;5.030;2023-09-08T01:12:13;101644.81;;;20.96;100.00
71907;BME280;59781;52.090;5.030;2023-09-08T01:14:39;101650.41;;;21.08;100.00
71907;BME280;59781;52.090;5.030;2023-09-08T01:17:04;101645.94;;;20.82;100.00
71907;BME280;59781;52.090;5.030;2023-09-08T01:19:30;101652.03;;;20.46;100.00
71907;BME280;59781;52.090;5.030;2023-09-08T01:27:58;101645.69;;;20.39;100.00
71907;BME280;59781;52.090;5.030;2023-09-08T01:30:28;101644.84;;;20.51;100.00
71907;BME280;59781;52.090;5.030;2023-09-08T01:32:58;101648.84;;;20.42;100.00
71907;BME280;59781;52.090;5.030;2023-09-08T01:35:24;101646.78;;;20.31;100.00
71907;BME280;59781;52.090;5.030;2023-09-08T01:37:50;101648.22;;;20.47;100.00
71907;BME280;59781;52.090;5.030;2023-09-08T01:40:16;101646.28;;;20.54;100.00
71907;BME280;59781;52.090;5.030;2023-09-08T01:42:44;101648.72;;;20.11;100.00
71907;BME280;59781;52.090;5.030;2023-09-08T01:45:11;101647.44;;;20.13;100.00
71907;BME280;59781;52.090;5.030;2023-09-08T01:47:37;101652.34;;;20.62;100.00
71907;BME280;59781;52.090;5.030;2023-09-08T01:50:03;101648.28;;;20.20;100.00
71907;BME280;59781;52.090;5.030;2023-09-08T01:52:30;101647.63;;;20.25;100.00
71907;BME280;59781;52.090;5.030;2023-09-08T01:54:55;101647.63;;;20.31;100.00
71907;BME280;59781;52.090;5.030;2023-09-08T01:57:21;101648.97;;;19.96;100.00
71907;BME280;59781;52.090;5.030;2023-09-08T01:59:47;101649.19;;;20.01;100.00
71907;BME280;59781;52.090;5.030;2023-09-08T02:02:13;101641.44;;;19.78;100.00
71907;BME280;59781;52.090;5.030;2023-09-08T02:04:40;101646.88;;;19.85;100.00
71907;BME280;59781;52.090;5.030;2023-09-08T02:07:05;101648.78;;;19.64;100.00
71907;BME280;59781;52.090;5.030;2023-09-08T02:09:35;101640.59;;;19.64;100.00
71907;BME280;59781;52.090;5.030;2023-09-08T02:12:03;101643.53;;;19.63;100.00
71907;BME280;59781;52.090;5.030;2023-09-08T02:14:29;101646.28;;;19.63;100.00
71907;BME280;59781;52.090;5.030;2023-09-08T02:16:56;101636.16;;;19.90;100.00
71907;BME280;59781;52.090;5.030;2023-09-08T02:19:23;101633.59;;;20.01;100.00
71907;BME280;59781;52.090;5.030;2023-09-08T02:21:49;101635.97;;;19.65;100.00
71907;BME280;59781;52.090;5.030;2023-09-08T02:24:15;101635.31;;;19.76;100.00
71907;BME280;59781;52.090;5.030;2023-09-08T02:26:41;101640.38;;;19.66;100.00
71907;BME280;59781;52.090;5.030;2023-09-08T02:29:07;101631.97;;;19.74;100.00
71907;BME280;59781;52.090;5.030;2023-09-08T02:31:33;101634.50;;;19.69;100.00
71907;BME280;59781;52.090;5.030;2023-09-08T02:34:01;101633.22;;;19.25;100.00
71907;BME280;59781;52.090;5.030;2023-09-08T02:36:27;101624.63;;;19.68;100.00
71907;BME280;59781;52.090;5.030;2023-09-08T02:38:56;101631.53;;;19.84;100.00
71907;BME280;59781;52.090;5.030;2023-09-08T02:41:23;101625.66;;;19.87;100.00
71907;BME280;59781;52.090;5.030;2023-09-08T02:43:49;101633.09;;;20.24;100.00
71907;BME280;59781;52.090;5.030;2023-09-08T02:46:16;101634.91;;;19.66;100.00
71907;BME280;59781;52.090;5.030;2023-09-08T02:48:41;101643.53;;;19.56;100.00
71907;BME280;59781;52.090;5.030;2023-09-08T02:51:08;101640.63;;;19.58;100.00
71907;BME280;59781;52.090;5.030;2023-09-08T02:53:33;101646.25;;;19.36;100.00
71907;BME280;59781;52.090;5.030;2023-09-08T02:55:59;101643.53;;;19.43;100.00
71907;BME280;59781;52.090;5.030;2023-09-08T02:58:26;101640.34;;;19.86;100.00
71907;BME280;59781;52.090;5.030;2023-09-08T03:00:53;101634.88;;;19.99;100.00
71907;BME280;59781;52.090;5.030;2023-09-08T03:03:21;101638.06;;;19.89;100.00
71907;BME280;59781;52.090;5.030;2023-09-08T03:05:47;101640.75;;;19.96;100.00
71907;BME280;59781;52.090;5.030;2023-09-08T03:08:13;101640.16;;;19.74;100.00
71907;BME280;59781;52.090;5.030;2023-09-08T03:10:39;101635.31;;;19.76;100.00
71907;BME280;59781;52.090;5.030;2023-09-08T03:13:06;101645.19;;;19.11;100.00
71907;BME280;59781;52.090;5.030;2023-09-08T03:15:31;101630.28;;;19.13;100.00
71907;BME280;59781;52.090;5.030;2023-09-08T03:17:59;101630.69;;;19.37;100.00
71907;BME280;59781;52.090;5.030;2023-09-08T03:20:25;101630.94;;;19.29;100.00
71907;BME280;59781;52.090;5.030;2023-09-08T03:22:52;101621.66;;;19.36;100.00
71907;BME280;59781;52.090;5.030;2023-09-08T03:25:18;101623.59;;;19.69;100.00
71907;BME280;59781;52.090;5.030;2023-09-08T03:27:44;101621.91;;;19.68;100.00
71907;BME280;59781;52.090;5.030;2023-09-08T03:30:10;101620.84;;;19.42;100.00
71907;BME280;59781;52.090;5.030;2023-09-08T03:32:37;101622.97;;;19.60;100.00
71907;BME280;59781;52.090;5.030;2023-09-08T03:35:04;101625.22;;;19.37;100.00
71907;BME280;59781;52.090;5.030;2023-09-08T03:37:34;101621.66;;;19.23;100.00
71907;BME280;59781;52.090;5.030;2023-09-08T03:40:00;101619.13;;;19.55;100.00
71907;BME280;59781;52.090;5.030;2023-09-08T03:42:25;101619.16;;;19.28;100.00
71907;BME280;59781;52.090;5.030;2023-09-08T03:44:52;101618.09;;;19.49;100.00
71907;BME280;59781;52.090;5.030;2023-09-08T03:47:17;101614.31;;;19.50;100.00
71907;BME280;59781;52.090;5.030;2023-09-08T03:49:43;101609.28;;;19.40;100.00
71907;BME280;59781;52.090;5.030;2023-09-08T03:52:09;101614.09;;;19.12;100.00
71907;BME280;59781;52.090;5.030;2023-09-08T03:54:34;101612.22;;;19.19;100.00
71907;BME280;59781;52.090;5.030;2023-09-08T03:57:00;101614.94;;;19.32;100.00
71907;BME280;59781;52.090;5.030;2023-09-08T03:59:26;101609.06;;;19.42;100.00
71907;BME280;59781;52.090;5.030;2023-09-08T04:01:51;101610.72;;;19.36;100.00
71907;BME280;59781;52.090;5.030;2023-09-08T04:04:17;101612.41;;;19.11;100.00
71907;BME280;59781;52.090;5.030;2023-09-08T04:06:45;101616.84;;;19.18;100.00
71907;BME280;59781;52.090;5.030;2023-09-08T04:09:11;101609.47;;;19.06;100.00
71907;BME280;59781;52.090;5.030;2023-09-08T04:11:37;101614.63;;;18.68;100.00
71907;BME280;59781;52.090;5.030;2023-09-08T04:14:03;101611.38;;;19.12;100.00
71907;BME280;59781;52.090;5.030;2023-09-08T04:16:28;101611.50;;;18.77;100.00
71907;BME280;59781;52.090;5.030;2023-09-08T04:18:54;101609.28;;;19.27;100.00
71907;BME280;59781;52.090;5.030;2023-09-08T04:21:20;101602.78;;;19.48;100.00
71907;BME280;59781;52.090;5.030;2023-09-08T04:23:46;101611.34;;;19.05;100.00
71907;BME280;59781;52.090;5.030;2023-09-08T04:26:12;101611.94;;;18.87;100.00
71907;BME280;59781;52.090;5.030;2023-09-08T04:28:38;101607.94;;;18.70;100.00
71907;BME280;59781;52.090;5.030;2023-09-08T04:31:04;101616.56;;;18.74;100.00
71907;BME280;59781;52.090;5.030;2023-09-08T04:33:30;101616.63;;;18.46;100.00
71907;BME280;59781;52.090;5.030;2023-09-08T04:35:56;101610.47;;;18.72;100.00
71907;BME280;59781;52.090;5.030;2023-09-08T04:38:21;101616.38;;;18.34;100.00
71907;BME280;59781;52.090;5.030;2023-09-08T04:40:47;101616.13;;;18.22;100.00
71907;BME280;59781;52.090;5.030;2023-09-08T04:43:13;101615.88;;;18.17;100.00
71907;BME280;59781;52.090;5.030;2023-09-08T04:45:40;101622.25;;;17.96;100.00
71907;BME280;59781;52.090;5.030;2023-09-08T04:48:06;101619.63;;;18.10;100.00
71907;BME280;59781;52.090;5.030;2023-09-08T04:50:32;101621.00;;;17.99;100.00
71907;BME280;59781;52.090;5.030;2023-09-08T04:52:58;101622.47;;;18.29;100.00
71907;BME280;59781;52.090;5.030;2023-09-08T04:55:25;101620.91;;;18.14;100.00
71907;BME280;59781;52.090;5.030;2023-09-08T04:57:50;101629.25;;;18.05;100.00
71907;BME280;59781;52.090;5.030;2023-09-08T05:00:17;101635.47;;;17.93;100.00
71907;BME280;59781;52.090;5.030;2023-09-08T05:02:43;101620.00;;;18.00;100.00
71907;BME280;59781;52.090;5.030;2023-09-08T05:05:10;101633.53;;;17.87;100.00
71907;BME280;59781;52.090;5.030;2023-09-08T05:07:36;101625.25;;;18.01;100.00
71907;BME280;59781;52.090;5.030;2023-09-08T05:10:02;101635.31;;;18.01;100.00
71907;BME280;59781;52.090;5.030;2023-09-08T05:12:32;101630.25;;;17.98;100.00
71907;BME280;59781;52.090;5.030;2023-09-08T05:14:58;101635.66;;;17.91;100.00
71907;BME280;59781;52.090;5.030;2023-09-08T05:17:32;101631.22;;;17.84;100.00
71907;BME280;59781;52.090;5.030;2023-09-08T05:19:58;101642.13;;;17.84;100.00
71907;BME280;59781;52.090;5.030;2023-09-08T05:22:23;101638.66;;;18.03;100.00
71907;BME280;59781;52.090;5.030;2023-09-08T05:24:49;101636.16;;;18.08;100.00
71907;BME280;59781;52.090;5.030;2023-09-08T05:27:15;101640.03;;;18.20;100.00
71907;BME280;59781;52.090;5.030;2023-09-08T05:29:40;101632.69;;;18.21;100.00
71907;BME280;59781;52.090;5.030;2023-09-08T05:32:06;101631.19;;;18.18;100.00
71907;BME280;59781;52.090;5.030;2023-09-08T05:34:32;101636.56;;;18.05;100.00
71907;BME280;59781;52.090;5.030;2023-09-08T05:36:58;101634.50;;;18.07;100.00
71907;BME280;59781;52.090;5.030;2023-09-08T05:39:23;101644.06;;;18.38;100.00
71907;BME280;59781;52.090;5.030;2023-09-08T05:41:49;101638.22;;;18.88;100.00
71907;BME280;59781;52.090;5.030;2023-09-08T05:44:15;101637.44;;;19.21;100.00
71907;BME280;59781;52.090;5.030;2023-09-08T05:46:40;101638.84;;;18.97;100.00
71907;BME280;59781;52.090;5.030;2023-09-08T05:49:07;101627.56;;;19.20;100.00
71907;BME280;59781;52.090;5.030;2023-09-08T05:51:33;101631.97;;;19.08;100.00
71907;BME280;59781;52.090;5.030;2023-09-08T05:54:00;101639.75;;;19.44;100.00
71907;BME280;59781;52.090;5.030;2023-09-08T05:56:30;101630.69;;;19.90;100.00
71907;BME280;59781;52.090;5.030;2023-09-08T05:58:57;101627.97;;;19.83;100.00
71907;BME280;59781;52.090;5.030;2023-09-08T06:01:24;101630.97;;;20.46;100.00
71907;BME280;59781;52.090;5.030;2023-09-08T06:03:50;101624.59;;;20.59;100.00
71907;BME280;59781;52.090;5.030;2023-09-08T06:06:16;101631.47;;;21.38;100.00
71907;BME280;59781;52.090;5.030;2023-09-08T06:08:42;101634.31;;;22.18;100.00
71907;BME280;59781;52.090;5.030;2023-09-08T06:11:08;101629.22;;;21.78;100.00
71907;BME280;59781;52.090;5.030;2023-09-08T06:13:35;101635.31;;;21.98;100.00
71907;BME280;59781;52.090;5.030;2023-09-08T06:16:01;101634.38;;;23.08;100.00
71907;BME280;59781;52.090;5.030;2023-09-08T06:18:28;101634.53;;;23.90;100.00
71907;BME280;59781;52.090;5.030;2023-09-08T06:20:57;101633.56;;;23.61;100.00
71907;BME280;59781;52.090;5.030;2023-09-08T06:23:23;101637.63;;;23.70;100.00
71907;BME280;59781;52.090;5.030;2023-09-08T06:25:50;101648.38;;;22.58;100.00
71907;BME280;59781;52.090;5.030;2023-09-08T06:28:18;101649.34;;;24.00;100.00
71907;BME280;59781;52.090;5.030;2023-09-08T06:30:44;101648.63;;;23.93;100.00
71907;BME280;59781;52.090;5.030;2023-09-08T06:33:09;101641.19;;;23.94;100.00
71907;BME280;59781;52.090;5.030;2023-09-08T06:35:35;101645.94;;;24.22;100.00
71907;BME280;59781;52.090;5.030;2023-09-08T06:38:01;101638.31;;;24.93;100.00
71907;BME280;59781;52.090;5.030;2023-09-08T06:40:29;101642.16;;;25.54;100.00
71907;BME280;59781;52.090;5.030;2023-09-08T06:42:55;101637.44;;;24.75;100.00
71907;BME280;59781;52.090;5.030;2023-09-08T06:45:38;101640.31;;;25.76;100.00
71907;BME280;59781;52.090;5.030;2023-09-08T06:48:05;101646.00;;;24.91;100.00
71907;BME280;59781;52.090;5.030;2023-09-08T06:50:31;101640.41;;;24.45;100.00
71907;BME280;59781;52.090;5.030;2023-09-08T06:52:57;101645.31;;;25.12;100.00
71907;BME280;59781;52.090;5.030;2023-09-08T06:55:22;101646.59;;;24.93;100.00
71907;BME280;59781;52.090;5.030;2023-09-08T06:57:48;101647.75;;;25.08;100.00
71907;BME280;59781;52.090;5.030;2023-09-08T07:00:14;101645.31;;;25.12;100.00
71907;BME280;59781;52.090;5.030;2023-09-08T07:02:42;101646.66;;;25.93;100.00
71907;BME280;59781;52.090;5.030;2023-09-08T07:05:09;101642.22;;;25.92;100.00
71907;BME280;59781;52.090;5.030;2023-09-08T07:07:36;101643.94;;;25.77;100.00
71907;BME280;59781;52.090;5.030;2023-09-08T07:10:03;101651.00;;;26.06;100.00
71907;BME280;59781;52.090;5.030;2023-09-08T07:12:30;101651.53;;;25.19;100.00
71907;BME280;59781;52.090;5.030;2023-09-08T07:14:56;101643.66;;;25.61;100.00
71907;BME280;59781;52.090;5.030;2023-09-08T07:17:22;101645.06;;;26.58;100.00
71907;BME280;59781;52.090;5.030;2023-09-08T07:19:51;101644.00;;;26.37;100.00
71907;BME280;59781;52.090;5.030;2023-09-08T07:22:17;101643.19;;;26.42;100.00
71907;BME280;59781;52.090;5.030;2023-09-08T07:24:44;101646.44;;;26.82;100.00
71907;BME280;59781;52.090;5.030;2023-09-08T07:27:10;101641.56;;;27.17;100.00
71907;BME280;59781;52.090;5.030;2023-09-08T07:29:40;101642.22;;;27.29;100.00
71907;BME280;59781;52.090;5.030;2023-09-08T07:32:06;101644.94;;;26.97;100.00
71907;BME280;59781;52.090;5.030;2023-09-08T07:34:32;101648.97;;;26.62;100.00
71907;BME280;59781;52.090;5.030;2023-09-08T07:37:00;101651.41;;;27.66;99.84
71907;BME280;59781;52.090;5.030;2023-09-08T07:39:26;101649.66;;;27.55;99.69
71907;BME280;59781;52.090;5.030;2023-09-08T07:41:52;101647.53;;;26.81;100.00
71907;BME280;59781;52.090;5.030;2023-09-08T07:44:19;101653.06;;;28.05;96.05
71907;BME280;59781;52.090;5.030;2023-09-08T07:46:45;101648.94;;;27.70;99.87
71907;BME280;59781;52.090;5.030;2023-09-08T07:49:14;101648.75;;;28.29;95.05
71907;BME280;59781;52.090;5.030;2023-09-08T07:51:40;101646.84;;;27.87;95.73
71907;BME280;59781;52.090;5.030;2023-09-08T07:54:06;101647.47;;;27.62;98.93
71907;BME280;59781;52.090;5.030;2023-09-08T07:56:32;101647.19;;;27.96;98.04
71907;BME280;59781;52.090;5.030;2023-09-08T07:58:58;101639.91;;;27.85;100.00
71907;BME280;59781;52.090;5.030;2023-09-08T08:01:23;101646.38;;;28.53;94.95
71907;BME280;59781;52.090;5.030;2023-09-08T08:03:49;101659.69;;;28.56;95.66
71907;BME280;59781;52.090;5.030;2023-09-08T08:06:14;101652.00;;;28.73;94.61
71907;BME280;59781;52.090;5.030;2023-09-08T08:08:40;101655.50;;;28.48;96.82
71907;BME280;59781;52.090;5.030;2023-09-08T08:11:11;101648.53;;;28.36;96.22
71907;BME280;59781;52.090;5.030;2023-09-08T08:13:39;101640.28;;;28.56;95.53
71907;BME280;59781;52.090;5.030;2023-09-08T08:16:05;101644.81;;;28.88;94.53
71907;BME280;59781;52.090;5.030;2023-09-08T08:18:31;101636.84;;;29.73;90.77
71907;BME280;59781;52.090;5.030;2023-09-08T08:20:57;101624.25;;;30.06;88.28
71907;BME280;59781;52.090;5.030;2023-09-08T08:23:22;101631.84;;;29.39;92.62
71907;BME280;59781;52.090;5.030;2023-09-08T08:25:49;101629.06;;;29.03;95.63
71907;BME280;59781;52.090;5.030;2023-09-08T08:28:14;101635.75;;;29.53;95.63
71907;BME280;59781;52.090;5.030;2023-09-08T08:30:40;101636.53;;;29.89;93.23
71907;BME280;59781;52.090;5.030;2023-09-08T08:33:06;101635.69;;;29.94;92.27
71907;BME280;59781;52.090;5.030;2023-09-08T08:35:32;101625.75;;;29.11;95.72
71907;BME280;59781;52.090;5.030;2023-09-08T08:37:58;101637.97;;;29.56;93.90
71907;BME280;59781;52.090;5.030;2023-09-08T08:40:25;101631.53;;;29.91;93.56
71907;BME280;59781;52.090;5.030;2023-09-08T08:42:57;101632.38;;;29.87;92.87
71907;BME280;59781;52.090;5.030;2023-09-08T08:45:24;101634.63;;;29.64;98.10
71907;BME280;59781;52.090;5.030;2023-09-08T08:47:51;101630.00;;;30.40;89.64
71907;BME280;59781;52.090;5.030;2023-09-08T08:50:18;101641.28;;;29.74;93.63
71907;BME280;59781;52.090;5.030;2023-09-08T08:52:46;101640.16;;;29.90;94.85
71907;BME280;59781;52.090;5.030;2023-09-08T08:55:12;101642.06;;;30.10;93.52
71907;BME280;59781;52.090;5.030;2023-09-08T08:57:41;101638.66;;;30.28;88.80
71907;BME280;59781;52.090;5.030;2023-09-08T09:00:10;101645.28;;;30.37;89.83
71907;BME280;59781;52.090;5.030;2023-09-08T09:02:41;101642.34;;;31.56;90.25
71907;BME280;59781;52.090;5.030;2023-09-08T09:05:12;101644.84;;;30.79;90.38
71907;BME280;59781;52.090;5.030;2023-09-08T09:07:41;101640.13;;;31.19;85.84
71907;BME280;59781;52.090;5.030;2023-09-08T09:10:09;101644.00;;;31.57;84.48
71907;BME280;59781;52.090;5.030;2023-09-08T09:12:38;101642.25;;;31.66;82.59
71907;BME280;59781;52.090;5.030;2023-09-08T09:15:04;101647.06;;;31.22;88.36
71907;BME280;59781;52.090;5.030;2023-09-08T09:17:34;101650.06;;;30.32;90.65
71907;BME280;59781;52.090;5.030;2023-09-08T09:20:18;101648.09;;;30.92;93.55
71907;BME280;59781;52.090;5.030;2023-09-08T09:22:47;101652.38;;;31.52;91.89
71907;BME280;59781;52.090;5.030;2023-09-08T09:25:23;101649.13;;;32.27;83.90
71907;BME280;59781;52.090;5.030;2023-09-08T09:28:01;101652.91;;;31.54;86.07
71907;BME280;59781;52.090;5.030;2023-09-08T09:30:47;101652.06;;;31.59;85.83
71907;BME280;59781;52.090;5.030;2023-09-08T09:33:14;101651.25;;;32.78;80.76
71907;BME280;59781;52.090;5.030;2023-09-08T09:35:48;101655.03;;;31.67;87.40
71907;BME280;59781;52.090;5.030;2023-09-08T09:38:16;101654.03;;;31.53;87.19
71907;BME280;59781;52.090;5.030;2023-09-08T09:40:48;101651.94;;;32.22;84.17
71907;BME280;59781;52.090;5.030;2023-09-08T09:43:16;101657.47;;;32.03;89.63
71907;BME280;59781;52.090;5.030;2023-09-08T09:45:42;101650.91;;;32.85;83.73
71907;BME280;59781;52.090;5.030;2023-09-08T09:48:09;101641.34;;;32.24;86.10
71907;BME280;59781;52.090;5.030;2023-09-08T09:50:38;101643.84;;;32.49;86.13
71907;BME280;59781;52.090;5.030;2023-09-08T09:53:14;101643.66;;;32.41;86.67
71907;BME280;59781;52.090;5.030;2023-09-08T09:55:43;101641.09;;;32.87;82.03
71907;BME280;59781;52.090;5.030;2023-09-08T09:58:10;101640.34;;;31.91;87.28
71907;BME280;59781;52.090;5.030;2023-09-08T10:00:38;101634.06;;;33.60;81.92
71907;BME280;59781;52.090;5.030;2023-09-08T10:03:06;101641.72;;;34.14;78.41
71907;BME280;59781;52.090;5.030;2023-09-08T10:05:33;101631.84;;;33.89;76.98
71907;BME280;59781;52.090;5.030;2023-09-08T10:07:59;101632.84;;;33.33;79.73
71907;BME280;59781;52.090;5.030;2023-09-08T10:10:27;101632.88;;;32.96;84.63
71907;BME280;59781;52.090;5.030;2023-09-08T10:13:02;101630.31;;;32.99;81.82
71907;BME280;59781;52.090;5.030;2023-09-08T10:15:31;101627.31;;;34.35;77.59
71907;BME280;59781;52.090;5.030;2023-09-08T10:17:59;101630.78;;;34.68;74.92
71907;BME280;59781;52.090;5.030;2023-09-08T10:20:30;101631.34;;;34.01;75.98
71907;BME280;59781;52.090;5.030;2023-09-08T10:23:07;101635.81;;;34.02;77.22
71907;BME280;59781;52.090;5.030;2023-09-08T10:26:01;101628.81;;;33.86;74.87
71907;BME280;59781;52.090;5.030;2023-09-08T10:28:32;101631.28;;;33.08;80.64
71907;BME280;59781;52.090;5.030;2023-09-08T10:30:59;101640.72;;;32.75;79.99
71907;BME280;59781;52.090;5.030;2023-09-08T10:33:27;101637.50;;;32.87;87.59
71907;BME280;59781;52.090;5.030;2023-09-08T10:35:54;101646.25;;;33.50;80.77
71907;BME280;59781;52.090;5.030;2023-09-08T10:38:27;101628.38;;;33.65;79.43
71907;BME280;59781;52.090;5.030;2023-09-08T10:43:46;101627.91;;;33.90;83.79
71907;BME280;59781;52.090;5.030;2023-09-08T10:46:23;101624.22;;;33.49;78.08
71907;BME280;59781;52.090;5.030;2023-09-08T10:48:53;101630.56;;;33.82;77.97
71907;BME280;59781;52.090;5.030;2023-09-08T10:51:20;101621.53;;;33.57;74.67
71907;BME280;59781;52.090;5.030;2023-09-08T10:53:49;101622.41;;;33.39;80.55
71907;BME280;59781;52.090;5.030;2023-09-08T10:56:16;101620.72;;;33.71;82.03
71907;BME280;59781;52.090;5.030;2023-09-08T10:58:42;101625.13;;;34.18;78.47
71907;BME280;59781;52.090;5.030;2023-09-08T11:01:19;101631.94;;;33.84;76.49
71907;BME280;59781;52.090;5.030;2023-09-08T11:03:52;101636.59;;;33.75;74.61
71907;BME280;59781;52.090;5.030;2023-09-08T11:06:20;101627.31;;;33.61;76.55
71907;BME280;59781;52.090;5.030;2023-09-08T11:08:50;101626.75;;;33.78;77.03
71907;BME280;59781;52.090;5.030;2023-09-08T11:11:18;101627.63;;;34.47;73.98
71907;BME280;59781;52.090;5.030;2023-09-08T11:13:44;101630.63;;;34.09;77.10
71907;BME280;59781;52.090;5.030;2023-09-08T11:16:13;101630.41;;;34.33;81.59
71907;BME280;59781;52.090;5.030;2023-09-08T11:18:40;101636.44;;;34.13;76.28
71907;BME280;59781;52.090;5.030;2023-09-08T11:21:09;101633.41;;;34.37;74.39
71907;BME280;59781;52.090;5.030;2023-09-08T11:23:36;101636.59;;;34.71;70.89
71907;BME280;59781;52.090;5.030;2023-09-08T11:26:02;101646.38;;;34.05;70.94
71907;BME280;59781;52.090;5.030;2023-09-08T11:28:28;101641.81;;;34.23;71.94
71907;BME280;59781;52.090;5.030;2023-09-08T11:30:55;101644.28;;;34.25;76.67
71907;BME280;59781;52.090;5.030;2023-09-08T11:33:23;101645.09;;;33.84;71.64
71907;BME280;59781;52.090;5.030;2023-09-08T11:35:51;101642.03;;;34.54;71.42
71907;BME280;59781;52.090;5.030;2023-09-08T11:38:27;101640.59;;;34.79;73.96
71907;BME280;59781;52.090;5.030;2023-09-08T11:40:57;101636.94;;;34.15;77.54
71907;BME280;59781;52.090;5.030;2023-09-08T11:43:25;101636.13;;;34.14;80.32
71907;BME280;59781;52.090;5.030;2023-09-08T11:45:52;101620.94;;;35.06;74.09
71907;BME280;59781;52.090;5.030;2023-09-08T11:48:19;101631.13;;;35.02;71.86
71907;BME280;59781;52.090;5.030;2023-09-08T11:50:44;101627.44;;;34.79;68.58
71907;BME280;59781;52.090;5.030;2023-09-08T11:53:10;101635.69;;;34.48;72.61
71907;BME280;59781;52.090;5.030;2023-09-08T11:55:36;101639.94;;;34.18;77.57
71907;BME280;59781;52.090;5.030;2023-09-08T11:58:02;101628.91;;;34.77;75.03
71907;BME280;59781;52.090;5.030;2023-09-08T12:00:29;101626.06;;;34.27;73.15
71907;BME280;59781;52.090;5.030;2023-09-08T12:02:56;101629.41;;;34.43;72.84
71907;BME280;59781;52.090;5.030;2023-09-08T12:05:35;101630.72;;;34.45;73.89
71907;BME280;59781;52.090;5.030;2023-09-08T12:08:04;101627.53;;;34.52;73.87
71907;BME280;59781;52.090;5.030;2023-09-08T12:10:39;101628.94;;;34.36;74.80
71907;BME280;59781;52.090;5.030;2023-09-08T12:13:07;101622.66;;;34.03;73.68
71907;BME280;59781;52.090;5.030;2023-09-08T12:15:38;101622.16;;;34.78;73.79
71907;BME280;59781;52.090;5.030;2023-09-08T12:18:09;101627.25;;;34.76;72.60
71907;BME280;59781;52.090;5.030;2023-09-08T12:20:37;101618.53;;;34.14;72.74
71907;BME280;59781;52.090;5.030;2023-09-08T12:23:06;101618.28;;;34.88;71.39
71907;BME280;59781;52.090;5.030;2023-09-08T12:25:59;101622.19;;;34.64;72.83
71907;BME280;59781;52.090;5.030;2023-09-08T12:28:30;101621.75;;;33.61;78.45
71907;BME280;59781;52.090;5.030;2023-09-08T12:30:57;101621.97;;;34.61;79.15
71907;BME280;59781;52.090;5.030;2023-09-08T12:33:22;101621.06;;;34.38;75.19
71907;BME280;59781;52.090;5.030;2023-09-08T12:35:49;101618.03;;;34.75;75.38
71907;BME280;59781;52.090;5.030;2023-09-08T12:38:16;101617.44;;;34.65;75.57
71907;BME280;59781;52.090;5.030;2023-09-08T12:40:42;101620.25;;;34.87;73.78
71907;BME280;59781;52.090;5.030;2023-09-08T12:43:07;101614.25;;;33.89;82.80
71907;BME280;59781;52.090;5.030;2023-09-08T12:45:33;101618.81;;;33.99;78.90
71907;BME280;59781;52.090;5.030;2023-09-08T12:48:01;101615.09;;;34.80;70.49
71907;BME280;59781;52.090;5.030;2023-09-08T12:50:29;101616.41;;;33.78;75.98
71907;BME280;59781;52.090;5.030;2023-09-08T12:52:56;101611.25;;;34.54;72.23